ADDS METAR Data INFO
IDs: Format: Raw Decoded Include TAF

Data at: 0936 UTC 11 Dec 2017

KFSM 110853Z AUTO 00000KT 10SM CLR 02/M03 A3021 RMK AO2 SLP230 T00171033 56007
KFSM 110753Z AUTO 00000KT 10SM CLR 03/M03 A3021 RMK AO2 SLP232 T00281033
KFSM 110653Z AUTO 25003KT 10SM CLR 05/M04 A3022 RMK AO2 SLP234 T00501044
KFSM 110553Z AUTO 23003KT 10SM CLR 07/M05 A3023 RMK AO2 SLP237 T00671050 10128 20039 401721044 51005
KFSM 110453Z AUTO 22004KT 10SM CLR 07/M04 A3023 RMK AO2 SLP237 T00721044
KFSM 110353Z 25004KT 10SM CLR 08/M04 A3022 RMK AO2 SLP235 T00781039
KFSM 110253Z 26005KT 10SM CLR 07/M04 A3022 RMK AO2 SLP234 T00721039 50003
KFSM 110153Z 24006KT 10SM CLR 09/M04 A3022 RMK AO2 SLP236 T00941039
KFSM 110053Z 25005KT 10SM CLR 07/M04 A3022 RMK AO2 SLP235 T00721039
KFSM 102353Z 24003KT 10SM CLR 12/M05 A3021 RMK AO2 SLP232 T01221050 10172 20083 53007
KFSM 102253Z 26008KT 10SM CLR 14/M05 A3020 RMK AO2 SLP227 T01441050
KFSM 102153Z 26012KT 10SM CLR 17/M06 A3019 RMK AO2 SLP225 T01721056
KFSM 102053Z 28012KT 10SM CLR 17/M06 A3019 RMK AO2 SLP222 T01721056 56018
KFSM 101953Z 27015KT 10SM CLR 17/M06 A3019 RMK AO2 SLP222 T01671056
KFSM 101853Z 28015KT 10SM CLR 16/M04 A3020 RMK AO2 SLP228 T01611044
KFSM 101753Z 26012KT 10SM CLR 12/M02 A3024 RMK AO2 SLP241 T01221022 10122 21044 58017
KFSM 101653Z 26005KT 10SM CLR 09/M02 A3027 RMK AO2 SLP250 T00941017
KFSM 101553Z 00000KT 10SM CLR 04/M02 A3029 RMK AO2 SLP259 T00441017
KFSM 101453Z 00000KT 10SM CLR 01/M02 A3029 RMK AO2 SLP260 T00111022 58005
KFSM 101353Z 00000KT 10SM CLR M03/M04 A3029 RMK AO2 SLP261 T10281044
KFSM 101253Z 02003KT 10SM CLR M03/M06 A3031 RMK AO2 SLP268 T10331056
KFSM 101153Z 00000KT 10SM CLR M03/M06 A3030 RMK AO2 SLP264 T10331061 10011 21044 55000
KFSM 101053Z AUTO 00000KT 10SM CLR M03/M06 A3030 RMK AO2 SLP262 T10331056
KFSM 100953Z AUTO 25004KT 10SM CLR M02/M04 A3030 RMK AO2 SLP264 T10171044
KFSM 100853Z AUTO 24003KT 10SM CLR 00/M04 A3030 RMK AO2 SLP263 T00001044 50000
KFSM 100753Z AUTO 24003KT 10SM CLR 01/M04 A3030 RMK AO2 SLP263 T00111044
KFSM 100653Z AUTO 26007KT 10SM CLR M01/M05 A3031 RMK AO2 SLP265 T10111050
KFSM 100553Z AUTO 27007KT 10SM CLR 01/M05 A3030 RMK AO2 SLP264 T00061050 10083 21011 401221039 51006
KFSM 100453Z 24003KT 10SM CLR 01/M04 A3030 RMK AO2 SLP263 T00111044
KFSM 100353Z 25003KT 10SM CLR 00/M05 A3030 RMK AO2 SLP262 T00001050
KFSM 100253Z 00000KT 10SM CLR 02/M05 A3029 RMK AO2 SLP259 T00221050 51016
KFSM 100153Z 00000KT 10SM CLR 04/M05 A3027 RMK AO2 SLP255 T00391050
KFSM 100053Z 30006KT 10SM CLR 07/M06 A3026 RMK AO2 SLP249 T00721061
KFSM 092353Z 31006KT 10SM CLR 08/M06 A3024 RMK AO2 SLP241 T00831061 10122 20083 53018
KFSM 092253Z 32004KT 10SM CLR 10/M07 A3022 RMK AO2 SLP235 T01001067
KFSM 092153Z 31014KT 10SM CLR 12/M07 A3020 RMK AO2 SLP227 T01171072